Baie St.paul — CFN6120 — position and weather

sailwx.info

Track history (hours):
 
Tides and Currents Weather Stations Pressure Air Temp Water Temp Dewpoint Dewpoint Depression Visibility Wind Speed Wind Dir Waves Ship Positions

Baie St.paul

Last reported at 2017-Oct-17 19:00 UTC. Time now 2017-Oct-18 05:37 UTC.
Position N 42°18' W 081°06'.

Length 225 m; draft 8.1 m.

Type: Cargo ship. MMSI: 316022391.

Wind from 330 at 27 knots

Barometer 1029.0 mb
Air temperature 15.0 ° C
Visibility: greater than 10.8 NM

Date/timePositionNaut miles runAvg speedWind from/ knotsBaromVisibWave heightAir tempDewpointWater temp
2017-Oct-17 19:00N 42°18' W 081°06'205 6.9 330 / 271029.010.8 15.0
2017-Oct-16 13:23N 45°21' W 083°13'512.0
2017-Oct-16 12:59N 45°26' W 083°17'612.0
2017-Oct-16 12:30N 45°30' W 083°22'612.0
2017-Oct-16 12:00N 45°35' W 083°27'611.9
2017-Oct-16 11:30N 45°40' W 083°32'611.9
2017-Oct-16 10:59N 45°45' W 083°37'  
2017-Oct-13 19:00N 47°42' W 087°12'25510.2 330 / 301024.010.8 8.0
2017-Oct-12 18:00N 45°18' W 082°06'12010.0 180 / 141031.0 5.4 17.0
2017-Oct-12 06:00N 43°18' W 082°18'   040 / 20 11.0
2017-Oct-09 05:57N 45°18' W 083°09'612.0
2017-Oct-09 05:29N 45°22' W 083°14'612.3
2017-Oct-09 05:00N 45°27' W 083°19'612.2
2017-Oct-09 04:30N 45°32' W 083°24'612.3
2017-Oct-09 04:00N 45°37' W 083°30'612.3
2017-Oct-09 03:30N 45°41' W 083°35'612.1
2017-Oct-09 03:00N 45°46' W 083°41'612.0
2017-Oct-09 02:30N 45°51' W 083°46'611.9
2017-Oct-09 02:00N 45°55' W 083°53'510.6
2017-Oct-09 01:30N 46°00' W 083°53'4 8.2
2017-Oct-09 01:00N 46°03' W 083°58'4 7.6
2017-Oct-09 00:30N 46°06' W 084°01'4 7.9
2017-Oct-09 00:00N 46°10' W 084°04'4 8.9
2017-Oct-08 23:30N 46°12' W 084°09'4 7.4
2017-Oct-08 22:56N 46°16' W 084°12'27916.5
2017-Oct-08 06:00N 42°30' W 088°00'   240 / 261003.0 5.4
Track history (hours):
 
Tides and Currents Weather Stations Pressure Air Temp Water Temp Dewpoint Dewpoint Depression Visibility Wind Speed Wind Dir Waves Ship Positions

Baie St.paul

Last reported at 2017-Oct-17 19:00 UTC. Time now 2017-Oct-18 05:37 UTC.
Position N 42°18' W 081°06'.

Length 225 m; draft 8.1 m.

Type: Cargo ship. MMSI: 316022391.

Wind from 330 at 27 knots

Barometer 1029.0 mb
Air temperature 15.0 ° C
Visibility: greater than 10.8 NM

Date/timePositionNaut miles runAvg speedWind from/ knotsBaromVisibWave heightAir tempDewpointWater temp
2017-Oct-17 19:00N 42°18' W 081°06'205 6.9 330 / 271029.010.8 15.0
2017-Oct-16 13:23N 45°21' W 083°13'512.0
2017-Oct-16 12:59N 45°26' W 083°17'612.0
2017-Oct-16 12:30N 45°30' W 083°22'612.0
2017-Oct-16 12:00N 45°35' W 083°27'611.9
2017-Oct-16 11:30N 45°40' W 083°32'611.9
2017-Oct-16 10:59N 45°45' W 083°37'  
2017-Oct-13 19:00N 47°42' W 087°12'25510.2 330 / 301024.010.8 8.0
2017-Oct-12 18:00N 45°18' W 082°06'12010.0 180 / 141031.0 5.4 17.0
2017-Oct-12 06:00N 43°18' W 082°18'   040 / 20 11.0
2017-Oct-09 05:57N 45°18' W 083°09'612.0
2017-Oct-09 05:29N 45°22' W 083°14'612.3
2017-Oct-09 05:00N 45°27' W 083°19'612.2
2017-Oct-09 04:30N 45°32' W 083°24'612.3
2017-Oct-09 04:00N 45°37' W 083°30'612.3
2017-Oct-09 03:30N 45°41' W 083°35'612.1
2017-Oct-09 03:00N 45°46' W 083°41'612.0
2017-Oct-09 02:30N 45°51' W 083°46'611.9
2017-Oct-09 02:00N 45°55' W 083°53'510.6
2017-Oct-09 01:30N 46°00' W 083°53'4 8.2
2017-Oct-09 01:00N 46°03' W 083°58'4 7.6
2017-Oct-09 00:30N 46°06' W 084°01'4 7.9
2017-Oct-09 00:00N 46°10' W 084°04'4 8.9
2017-Oct-08 23:30N 46°12' W 084°09'4 7.4
2017-Oct-08 22:56N 46°16' W 084°12'27916.5
2017-Oct-08 06:00N 42°30' W 088°00'   240 / 261003.0 5.4

Dump ship's entire track history